createdAt,value
2023-02-14T00:02:05.861Z,103140.66
2023-02-14T00:07:20.355Z,103135.13
2023-02-14T00:09:54.470Z,103145.59
2023-02-14T00:13:00.157Z,103139.44
2023-02-14T00:15:27.024Z,103144.50
2023-02-14T00:18:07.815Z,103139.16
2023-02-14T00:20:38.738Z,103135.53
2023-02-14T00:23:24.052Z,103141.59
2023-02-14T00:25:50.821Z,103131.72
2023-02-14T00:28:18.788Z,103135.09
2023-02-14T00:30:47.669Z,103136.72
2023-02-14T00:33:14.491Z,103133.28
2023-02-14T00:35:41.257Z,103133.13
2023-02-14T00:38:08.005Z,103129.47
2023-02-14T00:40:34.747Z,103133.81
2023-02-14T00:43:02.937Z,103131.13
2023-02-14T00:45:48.073Z,103137.09
2023-02-14T00:48:15.046Z,103131.78
2023-02-14T00:50:45.639Z,103136.19
2023-02-14T00:53:13.236Z,103139.56
2023-02-14T00:55:40.169Z,103143.09
2023-02-14T00:58:06.937Z,103143.81
2023-02-14T01:00:45.650Z,103140.19
2023-02-14T01:03:13.856Z,103141.81
2023-02-14T01:05:44.272Z,103142.66
2023-02-14T01:08:14.270Z,103148.63
2023-02-14T01:10:41.848Z,103149.44
2023-02-14T01:13:16.561Z,103146.00
2023-02-14T01:15:47.959Z,103138.00
2023-02-14T01:18:15.988Z,103150.28
2023-02-14T01:20:42.944Z,103139.66
2023-02-14T01:23:10.537Z,103140.56
2023-02-14T01:25:39.234Z,103139.66
2023-02-14T01:28:15.097Z,103131.66
2023-02-14T01:30:43.421Z,103136.03
2023-02-14T01:33:10.410Z,103121.78
2023-02-14T01:35:40.516Z,103135.84
2023-02-14T01:38:08.014Z,103134.78
2023-02-14T01:40:43.791Z,103137.28
2023-02-14T01:43:20.833Z,103133.59
2023-02-14T01:45:47.762Z,103137.66
2023-02-14T01:48:15.654Z,103135.78
2023-02-14T01:50:45.340Z,103137.28
2023-02-14T01:53:28.900Z,103126.59
2023-02-14T01:56:05.970Z,103138.66
2023-02-14T01:58:36.449Z,103118.28
2023-02-14T02:01:06.453Z,103123.34
2023-02-14T02:03:45.924Z,103125.06
2023-02-14T02:06:30.031Z,103122.25
2023-02-14T02:09:55.337Z,103126.25
2023-02-14T02:12:36.717Z,103126.03
2023-02-14T02:16:05.527Z,103121.50
2023-02-14T02:19:01.803Z,103117.69
2023-02-14T02:22:36.012Z,103119.13
2023-02-14T02:26:05.163Z,103102.13
2023-02-14T02:29:52.298Z,103108.06
2023-02-14T02:33:28.580Z,103098.00
2023-02-14T02:40:30.953Z,103092.59
2023-02-14T02:43:39.001Z,103087.34
2023-02-14T02:47:03.172Z,103086.31
2023-02-14T02:50:39.969Z,103087.13
2023-02-14T02:53:35.669Z,103092.38
2023-02-14T02:56:52.791Z,103087.94
2023-02-14T03:00:06.895Z,103086.22
2023-02-14T03:03:24.652Z,103087.94
2023-02-14T03:06:20.857Z,103084.50
2023-02-14T03:09:38.345Z,103084.31
2023-02-14T03:12:44.173Z,103075.63
2023-02-14T03:24:55.506Z,103068.72
2023-02-14T03:28:13.110Z,103067.59
2023-02-14T03:31:03.834Z,103068.59
2023-02-14T03:37:20.551Z,103049.31
2023-02-14T03:40:10.720Z,103054.56
2023-02-14T03:42:52.504Z,103048.41
2023-02-14T03:45:33.707Z,103046.59
2023-02-14T03:48:06.872Z,103053.66
2023-02-14T03:50:36.626Z,103046.59
2023-02-14T03:53:05.489Z,103042.19
2023-02-14T03:56:05.038Z,103046.59
2023-02-14T03:59:06.010Z,103037.72
2023-02-14T04:02:16.783Z,103037.53
2023-02-14T04:04:46.837Z,103033.91
2023-02-14T04:07:20.865Z,103032.09
2023-02-14T04:09:48.141Z,103033.53
2023-02-14T04:12:18.221Z,103037.78
2023-02-14T04:14:47.066Z,103035.16
2023-02-14T04:17:34.833Z,103025.59
2023-02-14T04:20:01.750Z,103032.44
2023-02-14T04:22:28.715Z,103032.53
2023-02-14T04:24:55.516Z,103030.72
2023-02-14T04:27:22.338Z,103018.50
2023-02-14T04:29:52.543Z,103025.47
2023-02-14T04:32:22.118Z,103025.47
2023-02-14T04:34:53.907Z,103031.53
2023-02-14T04:37:20.814Z,103026.28
2023-02-14T04:39:47.685Z,103029.72
2023-02-14T04:42:16.861Z,103020.84
2023-02-14T04:44:43.815Z,103017.31
2023-02-14T04:47:10.774Z,103016.41
2023-02-14T04:49:37.682Z,103016.31
2023-02-14T04:52:05.663Z,103010.19
2023-02-14T04:54:33.084Z,103016.31
2023-02-14T04:57:00.267Z,103003.91
2023-02-14T04:59:27.084Z,103008.16
2023-02-14T05:01:54.374Z,103015.22
2023-02-14T05:04:21.268Z,103010.78
2023-02-14T05:06:48.125Z,103005.44
2023-02-14T05:09:14.908Z,103013.22
2023-02-14T05:11:41.688Z,103018.47
2023-02-14T05:14:08.713Z,103007.06
2023-02-14T05:16:35.556Z,103003.47
2023-02-14T05:19:02.374Z,103004.25
2023-02-14T05:21:32.913Z,102998.91
2023-02-14T05:24:00.747Z,102996.22
2023-02-14T05:26:28.263Z,102999.72
2023-02-14T05:28:55.018Z,103001.34
2023-02-14T05:31:21.911Z,103001.25
2023-02-14T05:33:49.083Z,103001.16
2023-02-14T05:36:15.870Z,102995.00
2023-02-14T05:38:42.641Z,103005.41
2023-02-14T05:41:09.431Z,103007.84
2023-02-14T05:43:36.227Z,103006.03
2023-02-14T05:46:03.082Z,103002.38
2023-02-14T05:48:29.971Z,103003.22
2023-02-14T05:50:56.741Z,103003.22
2023-02-14T05:53:23.549Z,103009.25
2023-02-14T05:55:50.335Z,103011.88
2023-02-14T05:58:17.085Z,103008.25
2023-02-14T06:00:43.835Z,103007.44
2023-02-14T06:03:10.604Z,103016.31
2023-02-14T06:05:37.343Z,103010.25
2023-02-14T06:08:04.178Z,103010.47
2023-02-14T06:10:31.023Z,103013.25
2023-02-14T06:12:58.028Z,103013.56
2023-02-14T06:15:24.896Z,103009.41
2023-02-14T06:17:56.531Z,103013.22
2023-02-14T06:20:24.624Z,103010.88
2023-02-14T06:22:58.847Z,103016.41
2023-02-14T06:25:26.010Z,103010.53
2023-02-14T06:27:57.235Z,103013.44
2023-02-14T06:30:24.865Z,103010.13
2023-02-14T06:32:51.737Z,103018.16
2023-02-14T06:35:18.673Z,103010.41
2023-02-14T06:37:45.625Z,103014.91
2023-02-14T06:40:13.459Z,103024.69
2023-02-14T06:42:40.266Z,103018.72
2023-02-14T06:45:08.175Z,103022.34
2023-02-14T06:47:35.338Z,103024.16
2023-02-14T06:50:04.997Z,103021.78
2023-02-14T06:52:33.269Z,103022.75
2023-02-14T06:55:00.110Z,103025.47
2023-02-14T06:57:26.953Z,103027.38
2023-02-14T06:59:53.721Z,103024.91
2023-02-14T07:02:22.312Z,103020.69
2023-02-14T07:04:51.847Z,103021.69
2023-02-14T07:07:18.651Z,103025.31
2023-02-14T07:09:45.445Z,103023.69
2023-02-14T07:12:12.257Z,103023.75
2023-02-14T07:14:39.077Z,103022.97
2023-02-14T07:17:05.881Z,103027.50
2023-02-14T07:19:35.858Z,103024.88
2023-02-14T07:22:02.821Z,103027.50
2023-02-14T07:24:29.622Z,103031.00
2023-02-14T07:26:56.448Z,103028.47
2023-02-14T07:29:23.242Z,103032.03
2023-02-14T07:31:50.162Z,103029.41
2023-02-14T07:34:17.040Z,103037.53
2023-02-14T07:36:44.124Z,103028.75
2023-02-14T07:39:11.473Z,103028.88
2023-02-14T07:41:38.575Z,103023.88
2023-02-14T07:44:05.366Z,103026.78
2023-02-14T07:46:32.204Z,103021.69
2023-02-14T07:48:59.044Z,103022.78
2023-02-14T07:51:25.860Z,103018.59
2023-02-14T07:53:52.707Z,103010.13
2023-02-14T07:56:19.615Z,103013.88
2023-02-14T07:58:46.709Z,103008.84
2023-02-14T08:01:13.556Z,103017.69
2023-02-14T08:03:40.341Z,103024.13
2023-02-14T08:06:07.168Z,103006.72
2023-02-14T08:08:34.044Z,103009.69
2023-02-14T08:11:01.696Z,103011.69
2023-02-14T08:13:28.969Z,103010.22
2023-02-14T08:16:04.433Z,103014.03
2023-02-14T08:18:45.914Z,103011.75
2023-02-14T08:21:15.761Z,103008.63
2023-02-14T08:23:42.816Z,103011.63
2023-02-14T08:26:09.780Z,103014.66
2023-02-14T08:28:36.682Z,103013.38
2023-02-14T08:31:04.870Z,103023.69
2023-02-14T08:33:31.828Z,103014.47
2023-02-14T08:35:58.638Z,103009.72
2023-02-14T08:38:25.494Z,103008.25
2023-02-14T08:40:52.622Z,103012.91
2023-02-14T08:43:19.617Z,103013.16
2023-02-14T08:45:48.414Z,103022.28
2023-02-14T08:48:15.365Z,103015.56
2023-02-14T08:50:42.685Z,103017.63
2023-02-14T08:53:12.625Z,103012.66
2023-02-14T08:55:40.310Z,103006.72
2023-02-14T08:58:08.170Z,103006.13
2023-02-14T09:00:35.147Z,103011.66
2023-02-14T09:03:02.057Z,103011.06
2023-02-14T09:05:28.976Z,103013.75
2023-02-14T09:07:56.394Z,103020.13
2023-02-14T09:10:24.639Z,103012.47
2023-02-14T09:12:51.513Z,103010.97
2023-02-14T09:15:18.600Z,103009.44
2023-02-14T09:17:45.519Z,103002.69
2023-02-14T09:20:14.763Z,103003.03
2023-02-14T09:22:41.697Z,102998.97
2023-02-14T09:25:08.515Z,102997.56
2023-02-14T09:27:35.763Z,103006.69
2023-02-14T09:30:02.721Z,103000.78
2023-02-14T09:32:30.011Z,102999.38
2023-02-14T09:34:56.948Z,103001.47
2023-02-14T09:37:42.142Z,102998.22
2023-02-14T09:40:13.268Z,102999.41
2023-02-14T09:42:50.977Z,102995.38
2023-02-14T09:45:23.235Z,102991.34
2023-02-14T09:48:21.595Z,102983.88
2023-02-14T09:50:57.154Z,102979.84
2023-02-14T09:53:33.154Z,102981.16
2023-02-14T09:56:28.503Z,102981.53
2023-02-14T09:59:45.925Z,102985.47
2023-02-14T10:02:53.851Z,102970.78
2023-02-14T10:05:37.568Z,102971.16
2023-02-14T10:08:48.280Z,102982.97
2023-02-14T10:11:22.834Z,102969.19
2023-02-14T10:13:54.966Z,102970.50
2023-02-14T10:16:33.996Z,102965.53
2023-02-14T10:19:04.361Z,102966.63
2023-02-14T10:21:41.247Z,102975.03
2023-02-14T10:24:25.972Z,102965.69
2023-02-14T10:27:02.007Z,102966.06
2023-02-14T10:29:28.818Z,102968.25
2023-02-14T10:32:00.547Z,102972.94
2023-02-14T10:34:51.422Z,102968.03
2023-02-14T10:37:46.316Z,102961.47
2023-02-14T10:40:40.046Z,102963.41
2023-02-14T10:43:23.125Z,102968.06
2023-02-14T10:46:27.622Z,102957.88
2023-02-14T10:49:21.890Z,102958.22
2023-02-14T10:52:24.796Z,102951.50
2023-02-14T10:54:57.143Z,102956.19
2023-02-14T10:57:33.927Z,102947.66
2023-02-14T11:00:26.985Z,102941.75
2023-02-14T11:03:05.796Z,102936.69
2023-02-14T11:05:46.892Z,102933.44
2023-02-14T11:08:35.482Z,102927.50
2023-02-14T11:11:28.305Z,102928.66
2023-02-14T11:13:55.228Z,102926.28
2023-02-14T11:16:35.495Z,102923.91
2023-02-14T11:19:37.225Z,102928.59
2023-02-14T11:22:04.679Z,102914.59
2023-02-14T11:24:47.189Z,102926.34
2023-02-14T11:27:13.844Z,102915.00
2023-02-14T11:29:48.154Z,102921.50
2023-02-14T11:32:30.504Z,102915.47
2023-02-14T11:35:07.201Z,102911.31
2023-02-14T11:37:50.182Z,102906.22
2023-02-14T11:40:38.244Z,102892.22
2023-02-14T11:43:14.394Z,102908.22
2023-02-14T11:45:44.278Z,102900.47
2023-02-14T11:48:39.507Z,102894.50
2023-02-14T11:51:16.033Z,102892.00
2023-02-14T11:53:53.794Z,102886.00
2023-02-14T11:56:23.187Z,102884.41
2023-02-14T11:58:59.994Z,102889.91
2023-02-14T12:01:33.197Z,102874.09
2023-02-14T12:04:26.622Z,102876.03
2023-02-14T12:06:55.064Z,102871.75
2023-02-14T12:09:26.216Z,102878.19
2023-02-14T12:12:00.005Z,102866.81
2023-02-14T12:14:34.080Z,102864.31
2023-02-14T12:17:29.009Z,102866.31
2023-02-14T12:20:12.340Z,102856.69
2023-02-14T12:22:50.327Z,102848.00
2023-02-14T12:25:21.365Z,102847.25
2023-02-14T12:27:56.657Z,102840.41
2023-02-14T12:30:25.837Z,102840.63
2023-02-14T12:32:56.193Z,102847.88
2023-02-14T12:35:44.153Z,102830.41
2023-02-14T12:38:31.993Z,102834.09
2023-02-14T12:41:20.097Z,102826.25
2023-02-14T12:43:57.427Z,102819.31
2023-02-14T12:47:13.058Z,102815.84
2023-02-14T12:49:52.353Z,102814.94
2023-02-14T12:52:49.241Z,102812.38
2023-02-14T12:55:34.633Z,102809.91
2023-02-14T12:58:43.625Z,102806.56
2023-02-14T13:02:09.905Z,102804.88
2023-02-14T13:04:49.952Z,102802.34
2023-02-14T13:07:47.810Z,102796.25
2023-02-14T13:10:44.566Z,102792.78
2023-02-14T13:13:33.546Z,102792.97
2023-02-14T13:19:38.814Z,102782.56
2023-02-14T13:22:12.857Z,102778.19
2023-02-14T13:25:00.041Z,102776.56
2023-02-14T13:27:33.183Z,102763.28
2023-02-14T13:30:05.593Z,102766.03
2023-02-14T13:32:40.036Z,102767.94
2023-02-14T13:35:08.200Z,102757.38
2023-02-14T13:37:36.708Z,102756.63
2023-02-14T13:40:16.398Z,102754.94
2023-02-14T13:42:49.872Z,102753.28
2023-02-14T13:45:40.598Z,102750.72
2023-02-14T13:48:12.028Z,102745.50
2023-02-14T13:51:01.316Z,102744.72
2023-02-14T13:53:35.526Z,102737.69
2023-02-14T13:56:33.434Z,102734.22
2023-02-14T13:59:05.263Z,102734.28
2023-02-14T14:01:51.441Z,102726.38
2023-02-14T14:04:31.767Z,102729.09
2023-02-14T14:07:04.986Z,102725.63
2023-02-14T14:09:47.512Z,102728.34
2023-02-14T14:12:26.115Z,102727.47
2023-02-14T14:15:05.531Z,102731.09
2023-02-14T14:17:50.262Z,102732.00
2023-02-14T14:20:18.549Z,102724.91
2023-02-14T14:23:01.134Z,102729.41
2023-02-14T14:25:36.230Z,102731.19
2023-02-14T14:28:18.754Z,102735.66
2023-02-14T14:30:45.832Z,102737.41
2023-02-14T14:33:33.446Z,102736.50
2023-02-14T14:36:11.067Z,102721.44
2023-02-14T14:39:02.102Z,102725.88
2023-02-14T14:41:32.960Z,102718.69
2023-02-14T14:44:00.247Z,102722.22
2023-02-14T14:46:27.252Z,102713.31
2023-02-14T14:48:55.993Z,102707.06
2023-02-14T14:51:35.488Z,102711.47
2023-02-14T14:54:08.015Z,102712.22
2023-02-14T14:56:39.679Z,102710.38
2023-02-14T14:59:22.456Z,102702.28
2023-02-14T15:01:54.145Z,102701.31
2023-02-14T15:04:35.285Z,102696.78
2023-02-14T15:07:33.072Z,102694.84
2023-02-14T15:10:01.160Z,102688.53
2023-02-14T15:12:47.989Z,102689.31
2023-02-14T15:15:17.953Z,102691.88
2023-02-14T15:17:46.079Z,102682.91
2023-02-14T15:20:23.724Z,102685.50
2023-02-14T15:22:52.848Z,102682.75
2023-02-14T15:25:44.481Z,102680.00
2023-02-14T15:28:32.253Z,102686.97
2023-02-14T15:31:05.931Z,102688.63
2023-02-14T15:33:33.812Z,102683.25
2023-02-14T15:36:08.759Z,102688.50
2023-02-14T15:38:40.355Z,102685.75
2023-02-14T15:41:08.191Z,102681.22
2023-02-14T15:43:37.558Z,102672.22
2023-02-14T15:46:37.105Z,102680.94
2023-02-14T15:49:16.683Z,102678.13
2023-02-14T15:51:43.952Z,102671.84
2023-02-14T15:54:47.294Z,102674.34
2023-02-14T15:57:30.077Z,102676.84
2023-02-14T15:59:57.008Z,102676.72
2023-02-14T16:02:40.606Z,102678.34
2023-02-14T16:05:19.663Z,102674.66
2023-02-14T16:08:27.341Z,102672.63
2023-02-14T16:11:26.058Z,102679.47
2023-02-14T16:13:53.259Z,102676.63
2023-02-14T16:16:20.005Z,102675.56
2023-02-14T16:18:50.479Z,102679.88
2023-02-14T16:21:27.679Z,102677.03
2023-02-14T16:24:06.749Z,102680.38
2023-02-14T16:26:38.047Z,102681.97
2023-02-14T16:29:11.671Z,102680.03
2023-02-14T16:32:01.184Z,102675.38
2023-02-14T16:34:30.649Z,102676.03
2023-02-14T16:36:57.441Z,102678.56
2023-02-14T16:39:26.185Z,102670.50
2023-02-14T16:41:56.315Z,102680.06
2023-02-14T16:44:23.109Z,102682.53
2023-02-14T16:46:49.872Z,102677.94
2023-02-14T16:49:16.752Z,102674.25
2023-02-14T16:51:46.878Z,102675.91
2023-02-14T16:54:19.883Z,102673.13
2023-02-14T16:56:58.382Z,102676.47
2023-02-14T16:59:25.208Z,102684.22
2023-02-14T17:01:52.061Z,102683.19
2023-02-14T17:04:18.878Z,102681.25
2023-02-14T17:06:53.956Z,102683.75
2023-02-14T17:09:27.459Z,102685.38
2023-02-14T17:11:58.525Z,102688.72
2023-02-14T17:14:30.367Z,102684.06
2023-02-14T17:16:58.076Z,102683.91
2023-02-14T17:19:25.229Z,102675.81
2023-02-14T17:21:52.659Z,102673.84
2023-02-14T17:24:19.426Z,102678.09
2023-02-14T17:26:46.197Z,102682.34
2023-02-14T17:29:13.369Z,102682.19
2023-02-14T17:31:40.331Z,102683.78
2023-02-14T17:34:07.281Z,102673.94
2023-02-14T17:36:34.142Z,102679.06
2023-02-14T17:39:03.323Z,102686.84
2023-02-14T17:41:30.305Z,102693.75
2023-02-14T17:44:00.300Z,102683.88
2023-02-14T17:46:29.434Z,102682.81
2023-02-14T17:48:57.600Z,102684.38
2023-02-14T17:51:24.990Z,102678.94
2023-02-14T17:53:51.799Z,102676.13
2023-02-14T17:56:22.532Z,102686.63
2023-02-14T17:58:51.406Z,102682.91
2023-02-14T18:01:21.570Z,102673.06
2023-02-14T18:03:48.739Z,102679.06
2023-02-14T18:06:15.789Z,102671.84
2023-02-14T18:08:46.194Z,102672.59
2023-02-14T18:11:14.061Z,102671.53
2023-02-14T18:13:41.328Z,102662.56
2023-02-14T18:16:15.872Z,102663.31
2023-02-14T18:18:42.951Z,102661.31
2023-02-14T18:21:12.938Z,102662.16
2023-02-14T18:23:39.972Z,102656.69
2023-02-14T18:26:11.810Z,102650.34
2023-02-14T18:28:38.942Z,102654.56
2023-02-14T18:31:10.701Z,102658.81
2023-02-14T18:33:38.511Z,102651.69
2023-02-14T18:36:15.511Z,102651.53
2023-02-14T18:38:45.495Z,102646.03
2023-02-14T18:41:16.853Z,102646.75
2023-02-14T18:43:44.966Z,102644.81
2023-02-14T18:46:15.836Z,102646.41
2023-02-14T18:48:42.883Z,102651.56
2023-02-14T19:13:33.996Z,102636.19
2023-02-14T19:16:00.830Z,102640.72
2023-02-14T19:18:27.644Z,102632.00
2023-02-14T19:20:54.449Z,102620.72
2023-02-14T19:23:21.612Z,102620.84
2023-02-14T19:25:48.530Z,102621.88
2023-02-14T19:28:15.601Z,102614.03
2023-02-14T19:30:42.432Z,102617.69
2023-02-14T19:33:09.220Z,102615.19
2023-02-14T19:35:35.996Z,102609.94
2023-02-14T19:38:03.452Z,102609.19
2023-02-14T19:40:30.907Z,102611.00
2023-02-14T19:42:58.060Z,102611.94
2023-02-14T19:45:24.974Z,102607.63
2023-02-14T19:47:51.982Z,102606.78
2023-02-14T19:50:20.423Z,102605.91
2023-02-14T19:52:48.775Z,102613.00
2023-02-14T19:55:22.146Z,102611.34
2023-02-14T19:57:49.021Z,102601.59
2023-02-14T20:00:16.935Z,102602.53
2023-02-14T20:02:47.966Z,102601.72
2023-02-14T20:05:16.569Z,102595.53
2023-02-14T20:07:43.891Z,102600.88
2023-02-14T20:10:12.254Z,102591.13
2023-02-14T20:12:39.259Z,102589.34
2023-02-14T20:15:09.209Z,102595.50
2023-02-14T20:17:37.475Z,102591.94
2023-02-14T20:20:08.372Z,102595.34
2023-02-14T20:22:36.249Z,102586.50
2023-02-14T20:25:03.077Z,102586.31
2023-02-14T20:27:29.868Z,102586.16
2023-02-14T20:29:56.772Z,102586.88
2023-02-14T20:32:23.589Z,102576.91
2023-02-14T20:34:51.748Z,102580.28
2023-02-14T20:37:18.585Z,102575.66
2023-02-14T20:39:45.465Z,102566.59
2023-02-14T20:42:12.236Z,102566.50
2023-02-14T20:44:39.070Z,102569.88
2023-02-14T20:47:06.791Z,102561.81
2023-02-14T20:49:35.589Z,102562.59
2023-02-14T20:52:02.703Z,102558.88
2023-02-14T20:54:30.367Z,102560.50
2023-02-14T20:56:57.858Z,102560.31
2023-02-14T20:59:28.508Z,102557.50
2023-02-14T21:01:57.495Z,102554.69
2023-02-14T21:04:25.221Z,102560.69
2023-02-14T21:06:52.053Z,102553.53
2023-02-14T21:09:20.632Z,102555.16
2023-02-14T21:11:47.488Z,102558.56
2023-02-14T21:14:14.506Z,102561.91
2023-02-14T21:16:41.323Z,102559.16
2023-02-14T21:19:08.173Z,102569.59
2023-02-14T21:21:39.340Z,102561.41
2023-02-14T21:24:15.536Z,102561.28
2023-02-14T21:26:43.329Z,102558.41
2023-02-14T21:29:10.432Z,102559.03
2023-02-14T21:31:37.724Z,102562.34
2023-02-14T21:34:04.784Z,102549.88
2023-02-14T21:36:35.472Z,102548.00
2023-02-14T21:39:04.547Z,102554.03
2023-02-14T21:41:32.049Z,102546.84
2023-02-14T21:44:00.809Z,102543.22
2023-02-14T21:46:35.770Z,102548.44
2023-02-14T21:49:24.454Z,102551.84
2023-02-14T21:51:51.418Z,102539.25
2023-02-14T21:54:18.247Z,102531.28
2023-02-14T21:56:45.305Z,102532.88
2023-02-14T21:59:12.561Z,102541.50
2023-02-14T22:01:41.364Z,102541.31
2023-02-14T22:04:12.130Z,102535.84
2023-02-14T22:06:41.517Z,102534.78
2023-02-14T22:09:13.974Z,102534.56
2023-02-14T22:11:40.918Z,102533.59
2023-02-14T22:14:07.851Z,102541.28
2023-02-14T22:16:36.701Z,102526.13
2023-02-14T22:19:05.408Z,102536.41
2023-02-14T22:21:33.405Z,102522.13
2023-02-14T22:24:01.329Z,102526.28
2023-02-14T22:26:35.408Z,102523.38
2023-02-14T22:29:02.420Z,102525.53
2023-02-14T22:31:35.257Z,102513.81
2023-02-14T22:34:03.916Z,102511.88
2023-02-14T22:36:30.937Z,102512.50
2023-02-14T22:38:57.772Z,102512.38
2023-02-14T22:41:25.648Z,102510.34
2023-02-14T22:43:53.839Z,102511.03
2023-02-14T22:46:24.900Z,102510.81
2023-02-14T22:48:53.061Z,102501.81
2023-02-14T22:51:21.361Z,102498.22
2023-02-14T22:53:49.450Z,102497.13
2023-02-14T22:56:24.396Z,102496.06
2023-02-14T22:59:00.919Z,102491.47
2023-02-14T23:01:28.530Z,102495.66
2023-02-14T23:03:57.950Z,102493.72
2023-02-14T23:06:28.332Z,102494.34
2023-02-14T23:08:56.172Z,102499.47
2023-02-14T23:11:30.534Z,102501.97
2023-02-14T23:14:16.393Z,102488.66
2023-02-14T23:17:02.485Z,102498.09
2023-02-14T23:19:51.269Z,102498.78
2023-02-14T23:22:26.486Z,102494.16
2023-02-14T23:24:59.561Z,102488.78
2023-02-14T23:27:37.182Z,102487.81
2023-02-14T23:30:11.411Z,102487.72
2023-02-14T23:32:38.308Z,102488.47
2023-02-14T23:35:05.992Z,102479.63
2023-02-14T23:37:33.478Z,102469.84
2023-02-14T23:40:00.266Z,102476.84
2023-02-14T23:42:28.105Z,102474.06
2023-02-14T23:45:14.896Z,102468.75
2023-02-14T23:47:41.663Z,102472.09
2023-02-14T23:50:09.001Z,102469.44
2023-02-14T23:52:38.284Z,102471.06
2023-02-14T23:55:06.239Z,102466.56
2023-02-14T23:57:32.995Z,102462.97
